Time;durP1;ratioP1;P1;durP2;ratioP2;P2;SDS_P1;SDS_P2;PMS_P1;PMS_P2;Temp;Humidity;BMP_temperature;BMP_pressure;BME280_temperature;BME280_humidity;BME280_pressure;Samples;Min_cycle;Max_cycle;Signal;HPM_P1;HPM_P2
2022/04/26 03:37:40;;;;;;;;;;;7.70;99.90;;;;;;5055165;28;19935;-73
2022/04/26 03:40:06;;;;;;;;;;;7.70;99.90;;;;;;5050607;28;19909;-73
2022/04/26 03:42:32;;;;;;;;;;;7.70;99.90;;;;;;5050110;28;19975;-73
2022/04/26 03:44:57;;;;;;;;;;;7.60;99.90;;;;;;5050314;28;19916;-73
2022/04/26 03:47:23;;;;;;;;;;;7.60;99.90;;;;;;5050551;28;19917;-73
2022/04/26 03:49:48;;;;;;;;;;;7.60;99.90;;;;;;5049463;28;19913;-73
2022/04/26 03:52:13;;;;;;;;;;;7.40;99.90;;;;;;5050299;28;19939;-73
2022/04/26 03:54:39;;;;;;;;;;;7.40;99.90;;;;;;5050179;28;19916;-72
2022/04/26 03:57:06;;;;;;;;;;;7.40;99.90;;;;;;5052581;28;19909;-73
2022/04/26 03:59:31;;;;;;;;;;;7.40;99.90;;;;;;5054021;28;19913;-73
2022/04/26 04:01:57;;;;;;;;;;;7.50;99.90;;;;;;5053677;28;19939;-73
2022/04/26 04:04:22;;;;;;;;;;;7.50;99.90;;;;;;5053414;28;19916;-73
2022/04/26 04:06:48;;;;;;;;;;;7.60;99.90;;;;;;5053647;28;19913;-73
2022/04/26 04:09:13;;;;;;;;;;;7.60;99.90;;;;;;5053821;28;19909;-73
2022/04/26 04:11:39;;;;;;;;;;;7.70;99.90;;;;;;5053437;28;19915;-73
2022/04/26 04:14:04;;;;;;;;;;;7.70;99.90;;;;;;5053473;28;19908;-73
2022/04/26 04:16:30;;;;;;;;;;;7.70;99.90;;;;;;5052487;28;19955;-73
2022/04/26 04:21:39;;;;;;;;;;;7.70;99.90;;;;;;5048889;28;19920;-73
2022/04/26 04:24:05;;;;;;;;;;;7.70;99.90;;;;;;5053229;28;20277;-73
2022/04/26 04:26:30;;;;;;;;;;;7.70;99.90;;;;;;5053585;28;19917;-73
2022/04/26 04:28:56;;;;;;;;;;;7.70;99.90;;;;;;5053743;28;20285;-73
2022/04/26 04:31:21;;;;;;;;;;;7.60;99.90;;;;;;5053582;28;19909;-73
2022/04/26 04:33:47;;;;;;;;;;;7.50;99.90;;;;;;5053365;28;19908;-73
2022/04/26 04:36:12;;;;;;;;;;;7.50;99.90;;;;;;5053271;28;20007;-73
2022/04/26 04:38:38;;;;;;;;;;;7.60;99.90;;;;;;5053294;28;19983;-73
2022/04/26 04:41:06;;;;;;;;;;;7.60;99.90;;;;;;5053347;28;19959;-73
2022/04/26 04:43:32;;;;;;;;;;;7.60;99.90;;;;;;5046797;28;19908;-73
2022/04/26 04:45:57;;;;;;;;;;;7.60;99.90;;;;;;5046907;28;19909;-73
2022/04/26 04:48:23;;;;;;;;;;;7.60;99.90;;;;;;5053431;28;20632;-73
2022/04/26 04:50:48;;;;;;;;;;;7.60;99.90;;;;;;5053721;28;19913;-73
2022/04/26 04:53:14;;;;;;;;;;;7.60;99.90;;;;;;5052710;28;19935;-73
2022/04/26 04:55:40;;;;;;;;;;;7.60;99.90;;;;;;5053166;28;19936;-73
2022/04/26 04:58:06;;;;;;;;;;;7.60;99.90;;;;;;5053249;28;20002;-73
2022/04/26 05:00:31;;;;;;;;;;;7.60;99.90;;;;;;5053130;28;20270;-73
2022/04/26 05:02:58;;;;;;;;;;;7.60;99.90;;;;;;5052887;28;19936;-73
2022/04/26 05:05:23;;;;;;;;;;;7.70;99.90;;;;;;5052462;28;19916;-73
2022/04/26 05:07:50;;;;;;;;;;;7.70;99.90;;;;;;5057222;28;19909;-73
2022/04/26 05:10:15;;;;;;;;;;;7.70;99.90;;;;;;5052958;28;19909;-73
2022/04/26 05:12:41;;;;;;;;;;;7.70;99.90;;;;;;5052675;28;19909;-73
2022/04/26 05:15:06;;;;;;;;;;;7.70;99.90;;;;;;5052653;28;19944;-73
2022/04/26 05:17:32;;;;;;;;;;;7.60;99.90;;;;;;5052796;28;20428;-73
2022/04/26 05:19:58;;;;;;;;;;;7.60;99.90;;;;;;5052852;28;20484;-73
2022/04/26 05:22:23;;;;;;;;;;;7.70;99.90;;;;;;5052131;28;19912;-73
2022/04/26 05:24:56;;;;;;;;;;;7.60;99.90;;;;;;5052329;28;19952;-73
2022/04/26 05:27:22;;;;;;;;;;;7.60;99.90;;;;;;5052717;28;19909;-73
2022/04/26 05:29:48;;;;;;;;;;;7.60;99.90;;;;;;5052635;28;19995;-73
2022/04/26 05:32:18;;;;;;;;;;;7.70;99.90;;;;;;5052381;28;19944;-73
2022/04/26 05:34:43;;;;;;;;;;;7.70;99.90;;;;;;5051972;28;19909;-73
2022/04/26 05:37:09;;;;;;;;;;;7.70;99.90;;;;;;5052023;28;19963;-73
2022/04/26 05:39:34;;;;;;;;;;;7.70;99.90;;;;;;5052346;28;19940;-73
2022/04/26 05:42:00;;;;;;;;;;;7.70;99.90;;;;;;5052123;28;19920;-73
2022/04/26 05:44:25;;;;;;;;;;;7.70;99.90;;;;;;5051955;28;20297;-72
2022/04/26 05:46:51;;;;;;;;;;;7.70;99.90;;;;;;5046166;28;19955;-73
2022/04/26 05:49:16;;;;;;;;;;;7.80;99.90;;;;;;5052112;28;19944;-73
2022/04/26 05:51:42;;;;;;;;;;;7.80;99.90;;;;;;5051672;28;19909;-73
2022/04/26 05:54:07;;;;;;;;;;;7.80;99.90;;;;;;5051732;28;19909;-73
2022/04/26 05:56:33;;;;;;;;;;;7.80;99.90;;;;;;5052016;28;20015;-73
2022/04/26 05:58:58;;;;;;;;;;;7.90;99.90;;;;;;5051962;28;19920;-73
2022/04/26 06:01:24;;;;;;;;;;;7.90;99.90;;;;;;5051670;28;19913;-73
2022/04/26 06:03:49;;;;;;;;;;;8.00;99.90;;;;;;5051534;28;19909;-73
2022/04/26 06:06:15;;;;;;;;;;;8.00;99.90;;;;;;5051458;28;19955;-73
2022/04/26 06:08:41;;;;;;;;;;;8.00;99.90;;;;;;5051599;28;19963;-73
2022/04/26 06:11:07;;;;;;;;;;;8.00;99.90;;;;;;5051852;28;19912;-73
2022/04/26 06:13:32;;;;;;;;;;;8.00;99.90;;;;;;5051271;28;19991;-73
2022/04/26 06:15:58;;;;;;;;;;;7.90;99.90;;;;;;5051597;28;19928;-73
2022/04/26 06:18:23;;;;;;;;;;;7.90;99.90;;;;;;5051517;28;20404;-73
2022/04/26 06:20:48;;;;;;;;;;;8.00;99.90;;;;;;5048981;28;19972;-73
2022/04/26 06:23:14;;;;;;;;;;;8.00;99.90;;;;;;5044013;28;19909;-73
2022/04/26 06:25:39;;;;;;;;;;;8.10;99.90;;;;;;5042156;28;19991;-73
2022/04/26 06:28:06;;;;;;;;;;;8.00;99.90;;;;;;5045466;28;19949;-73
2022/04/26 06:30:31;;;;;;;;;;;8.10;99.90;;;;;;5043450;28;20262;-73
2022/04/26 06:32:57;;;;;;;;;;;8.30;99.90;;;;;;5044766;28;20058;-73
2022/04/26 06:35:22;;;;;;;;;;;8.50;99.90;;;;;;5041441;28;19909;-72
2022/04/26 06:37:48;;;;;;;;;;;8.50;99.90;;;;;;5040535;28;20046;-73
2022/04/26 06:40:14;;;;;;;;;;;8.50;99.90;;;;;;5042348;28;20377;-72
2022/04/26 06:42:39;;;;;;;;;;;8.60;99.90;;;;;;5042517;28;20243;-73
2022/04/26 06:45:05;;;;;;;;;;;8.70;99.90;;;;;;5043988;28;19975;-73
2022/04/26 06:47:30;;;;;;;;;;;8.80;99.90;;;;;;5042751;28;20247;-73
2022/04/26 06:49:56;;;;;;;;;;;8.90;99.90;;;;;;5051124;28;19913;-72
2022/04/26 06:52:21;;;;;;;;;;;8.90;99.90;;;;;;5050822;28;19956;-72
2022/04/26 06:54:47;;;;;;;;;;;9.00;99.90;;;;;;5050900;28;19939;-73
2022/04/26 06:57:12;;;;;;;;;;;9.10;99.90;;;;;;5049886;28;19954;-72
2022/04/26 06:59:39;;;;;;;;;;;9.30;99.90;;;;;;5051158;28;19919;-73
2022/04/26 07:02:05;;;;;;;;;;;9.50;99.90;;;;;;5051166;28;20312;-73
2022/04/26 07:04:30;;;;;;;;;;;9.50;99.90;;;;;;5050405;28;19909;-73
2022/04/26 07:06:56;;;;;;;;;;;9.60;99.90;;;;;;5050629;28;19919;-73
2022/04/26 07:09:22;;;;;;;;;;;9.50;99.90;;;;;;5050994;28;19932;-73
2022/04/26 07:11:47;;;;;;;;;;;9.60;99.90;;;;;;5050779;28;19909;-73
2022/04/26 07:14:13;;;;;;;;;;;9.60;99.90;;;;;;5050638;28;20381;-73
2022/04/26 07:16:38;;;;;;;;;;;10.20;99.90;;;;;;5051052;28;20388;-72
2022/04/26 07:19:04;;;;;;;;;;;10.70;99.90;;;;;;5050709;28;19979;-73
2022/04/26 07:21:30;;;;;;;;;;;10.70;99.90;;;;;;5044055;28;20375;-73
2022/04/26 07:23:55;;;;;;;;;;;10.80;99.90;;;;;;5050569;28;19909;-73
2022/04/26 07:26:21;;;;;;;;;;;10.40;99.90;;;;;;5050976;28;19915;-72
2022/04/26 07:28:46;;;;;;;;;;;10.10;99.90;;;;;;5050901;28;19913;-72
2022/04/26 07:31:12;;;;;;;;;;;9.90;99.90;;;;;;5051708;28;19959;-73
2022/04/26 07:36:22;;;;;;;;;;;9.80;99.90;;;;;;5048794;28;20427;-73
2022/04/26 07:38:49;;;;;;;;;;;10.50;99.90;;;;;;5054456;28;19948;-73
2022/04/26 07:41:15;;;;;;;;;;;12.20;99.90;;;;;;5054416;28;19917;-73
2022/04/26 07:43:41;;;;;;;;;;;11.60;99.90;;;;;;5054282;28;19916;-73
2022/04/26 07:46:07;;;;;;;;;;;10.70;99.90;;;;;;5054275;28;19909;-73
2022/04/26 07:48:33;;;;;;;;;;;10.10;99.90;;;;;;5054689;28;20334;-73
2022/04/26 07:50:59;;;;;;;;;;;9.90;99.90;;;;;;5047642;28;19920;-73
2022/04/26 07:53:26;;;;;;;;;;;9.90;99.90;;;;;;5053475;28;19908;-73
2022/04/26 07:55:52;;;;;;;;;;;10.40;99.90;;;;;;5054298;28;19916;-73
2022/04/26 07:58:17;;;;;;;;;;;10.40;99.90;;;;;;5054292;28;20274;-73
2022/04/26 08:00:43;;;;;;;;;;;10.10;99.90;;;;;;5048297;28;19916;-73
2022/04/26 08:03:08;;;;;;;;;;;9.90;99.90;;;;;;5052607;28;20008;-73
2022/04/26 08:05:34;;;;;;;;;;;9.90;99.90;;;;;;5053874;28;19955;-73
2022/04/26 08:08:00;;;;;;;;;;;9.80;99.90;;;;;;5054028;28;19986;-73
2022/04/26 08:10:25;;;;;;;;;;;9.80;99.90;;;;;;5053978;28;19932;-73
2022/04/26 08:12:51;;;;;;;;;;;9.90;99.90;;;;;;5053626;28;19909;-73
2022/04/26 08:15:18;;;;;;;;;;;9.70;99.90;;;;;;5053447;28;19916;-73
2022/04/26 08:17:44;;;;;;;;;;;9.80;99.90;;;;;;5053743;28;19978;-73
2022/04/26 08:20:10;;;;;;;;;;;9.90;99.90;;;;;;5051527;28;19948;-73
2022/04/26 08:22:37;;;;;;;;;;;10.10;99.90;;;;;;5050933;28;19917;-73
2022/04/26 08:27:46;;;;;;;;;;;10.40;99.90;;;;;;5053609;28;20006;-73
2022/04/26 08:30:12;;;;;;;;;;;10.60;99.90;;;;;;5053564;28;19959;-73
2022/04/26 08:32:39;;;;;;;;;;;10.50;99.90;;;;;;5053164;28;19909;-73
2022/04/26 08:35:06;;;;;;;;;;;10.40;99.90;;;;;;5053136;28;19940;-73
2022/04/26 08:37:33;;;;;;;;;;;10.80;99.90;;;;;;5053475;28;20004;-73
2022/04/26 08:39:59;;;;;;;;;;;10.80;99.90;;;;;;5053767;28;20312;-73
2022/04/26 08:42:34;;;;;;;;;;;10.70;99.90;;;;;;5052440;28;19913;-72
2022/04/26 08:44:59;;;;;;;;;;;10.80;99.90;;;;;;5051696;28;19909;-72
2022/04/26 08:52:53;;;;;;;;;;;10.80;99.90;;;;;;5048004;28;20013;-72
2022/04/26 08:55:19;;;;;;;;;;;10.60;99.90;;;;;;5052724;28;19971;-72
2022/04/26 08:57:45;;;;;;;;;;;10.60;99.90;;;;;;5053097;28;19908;-72
2022/04/26 09:00:11;;;;;;;;;;;10.50;99.90;;;;;;5052958;28;19913;-72
2022/04/26 09:02:38;;;;;;;;;;;10.40;99.90;;;;;;5052623;28;19939;-72
2022/04/26 09:05:09;;;;;;;;;;;10.70;99.90;;;;;;5052694;28;20344;-72
2022/04/26 09:07:36;;;;;;;;;;;10.70;99.90;;;;;;5054917;28;19913;-72
2022/04/26 09:10:04;;;;;;;;;;;11.00;99.90;;;;;;5052601;28;19916;-72
2022/04/26 09:12:29;;;;;;;;;;;11.00;99.90;;;;;;5049079;28;19966;-71
2022/04/26 09:14:55;;;;;;;;;;;11.50;99.90;;;;;;5052157;28;20381;-72
2022/04/26 09:17:20;;;;;;;;;;;12.00;99.90;;;;;;5052551;28;19913;-72
2022/04/26 09:19:49;;;;;;;;;;;13.70;99.90;;;;;;5050057;28;20358;-72
2022/04/26 09:22:22;;;;;;;;;;;13.90;98.90;;;;;;5048560;28;19916;-73
2022/04/26 09:25:02;;;;;;;;;;;15.30;99.90;;;;;;5052355;28;19932;-72
2022/04/26 09:27:29;;;;;;;;;;;16.60;97.70;;;;;;5052478;28;19913;-73
2022/04/26 09:29:55;;;;;;;;;;;16.90;95.50;;;;;;5047641;28;19912;-72
2022/04/26 09:32:20;;;;;;;;;;;14.40;96.20;;;;;;5051935;28;19954;-73
2022/04/26 09:34:46;;;;;;;;;;;14.40;97.10;;;;;;5052079;28;19912;-72
2022/04/26 09:37:12;;;;;;;;;;;13.80;97.30;;;;;;5052462;28;20316;-73
2022/04/26 09:39:39;;;;;;;;;;;14.20;97.20;;;;;;5052213;28;19909;-72
2022/04/26 09:42:05;;;;;;;;;;;15.10;96.10;;;;;;5051930;28;20389;-73
2022/04/26 09:44:32;;;;;;;;;;;14.30;94.50;;;;;;5051788;28;19971;-72
2022/04/26 09:46:57;;;;;;;;;;;13.40;97.30;;;;;;5051942;28;20293;-73
2022/04/26 09:49:24;;;;;;;;;;;12.90;98.50;;;;;;5051959;28;19909;-73
2022/04/26 09:52:01;;;;;;;;;;;12.60;96.90;;;;;;5051687;28;19916;-74
2022/04/26 09:54:26;;;;;;;;;;;12.80;99.80;;;;;;5045316;28;19916;-74
2022/04/26 09:56:52;;;;;;;;;;;13.80;95.00;;;;;;5051669;28;19909;-74
2022/04/26 09:59:26;;;;;;;;;;;15.60;95.00;;;;;;5051158;28;19909;-74
2022/04/26 10:01:53;;;;;;;;;;;15.20;96.50;;;;;;5051199;28;19913;-73
2022/04/26 10:04:21;;;;;;;;;;;13.40;95.20;;;;;;5051412;28;19959;-73
2022/04/26 10:06:49;;;;;;;;;;;13.10;96.80;;;;;;5051924;28;19909;-73
2022/04/26 10:09:15;;;;;;;;;;;12.70;96.70;;;;;;5051499;28;19912;-73
2022/04/26 10:11:40;;;;;;;;;;;12.40;97.10;;;;;;5051416;28;19908;-73
2022/04/26 10:14:07;;;;;;;;;;;12.40;93.20;;;;;;5051592;28;20107;-73
2022/04/26 10:16:33;;;;;;;;;;;14.10;93.20;;;;;;5051393;28;19954;-74
2022/04/26 10:19:03;;;;;;;;;;;16.00;90.00;;;;;;5051275;28;19922;-73
2022/04/26 10:21:29;;;;;;;;;;;15.10;90.60;;;;;;5051152;28;20003;-73
2022/04/26 10:23:54;;;;;;;;;;;17.50;87.20;;;;;;5049682;28;20003;-74
2022/04/26 10:26:23;;;;;;;;;;;20.20;84.30;;;;;;5051281;28;19909;-71
2022/04/26 10:28:50;;;;;;;;;;;20.40;72.20;;;;;;5049202;28;19970;-72
2022/04/26 10:31:17;;;;;;;;;;;19.10;72.90;;;;;;5049984;28;20354;-72
2022/04/26 10:33:44;;;;;;;;;;;19.50;78.40;;;;;;5044408;28;19916;-72
2022/04/26 10:36:32;;;;;;;;;;;19.40;74.60;;;;;;5051118;28;20365;-72
2022/04/26 10:39:06;;;;;;;;;;;21.00;76.30;;;;;;5051064;28;19909;-72
2022/04/26 10:41:35;;;;;;;;;;;19.70;74.00;;;;;;5050931;28;20007;-72
2022/04/26 10:44:12;;;;;;;;;;;20.70;76.30;;;;;;5051049;28;19908;-72
2022/04/26 10:46:41;;;;;;;;;;;20.40;71.10;;;;;;5048031;28;19909;-72
2022/04/26 10:49:25;;;;;;;;;;;18.80;74.40;;;;;;5050598;28;19951;-72
2022/04/26 10:51:51;;;;;;;;;;;18.00;79.40;;;;;;5050867;28;20328;-72
2022/04/26 10:54:35;;;;;;;;;;;20.30;71.50;;;;;;5050814;28;19916;-72
2022/04/26 10:57:01;;;;;;;;;;;20.80;70.50;;;;;;5045714;28;19956;-72
2022/04/26 10:59:27;;;;;;;;;;;22.80;69.50;;;;;;5050882;28;19959;-72
2022/04/26 11:01:54;;;;;;;;;;;18.10;69.90;;;;;;5050400;28;19952;-72
2022/04/26 11:04:19;;;;;;;;;;;15.60;78.50;;;;;;5050688;28;19923;-72
2022/04/26 11:06:45;;;;;;;;;;;14.60;78.40;;;;;;5048223;28;19913;-72
2022/04/26 11:09:12;;;;;;;;;;;13.90;79.30;;;;;;5054552;28;19995;-72
2022/04/26 11:11:47;;;;;;;;;;;13.40;80.50;;;;;;5054850;28;20362;-72
2022/04/26 11:14:13;;;;;;;;;;;13.20;82.10;;;;;;5053450;28;19915;-72
2022/04/26 11:16:57;;;;;;;;;;;13.20;85.30;;;;;;5054728;28;19999;-72
2022/04/26 11:19:30;;;;;;;;;;;13.10;81.30;;;;;;5051655;28;20405;-72
2022/04/26 11:21:56;;;;;;;;;;;12.80;75.00;;;;;;5058352;28;19936;-72
2022/04/26 11:29:52;;;;;;;;;;;12.90;81.30;;;;;;5050115;28;19916;-73
2022/04/26 11:32:42;;;;;;;;;;;12.70;78.40;;;;;;5054245;28;19997;-72
2022/04/26 11:35:08;;;;;;;;;;;12.90;81.70;;;;;;5046977;28;19996;-72
2022/04/26 11:37:47;;;;;;;;;;;12.80;81.20;;;;;;5054358;28;19960;-72
2022/04/26 11:40:20;;;;;;;;;;;13.30;82.10;;;;;;5054419;28;20282;-72
2022/04/26 11:42:46;;;;;;;;;;;13.70;82.50;;;;;;5047930;28;20004;-72
2022/04/26 11:45:11;;;;;;;;;;;16.40;81.90;;;;;;5053123;28;20350;-72
2022/04/26 11:47:37;;;;;;;;;;;17.70;75.40;;;;;;5053994;28;19996;-70
2022/04/26 11:50:12;;;;;;;;;;;18.50;72.50;;;;;;5054200;28;19909;-73
2022/04/26 11:52:38;;;;;;;;;;;19.40;76.00;;;;;;5048226;28;20285;-73
2022/04/26 11:55:05;;;;;;;;;;;18.00;68.30;;;;;;5054082;28;19908;-73
2022/04/26 11:57:33;;;;;;;;;;;16.10;69.90;;;;;;5054111;28;19978;-73
2022/04/26 11:59:59;;;;;;;;;;;14.60;76.20;;;;;;5054036;28;19913;-73
2022/04/26 12:02:25;;;;;;;;;;;14.20;75.40;;;;;;5053396;28;20007;-74
2022/04/26 12:04:51;;;;;;;;;;;13.60;77.50;;;;;;5053730;28;19936;-74
2022/04/26 12:07:17;;;;;;;;;;;13.50;82.30;;;;;;5047329;28;20340;-74
2022/04/26 12:09:42;;;;;;;;;;;13.30;87.00;;;;;;5053544;28;19940;-74
2022/04/26 12:12:10;;;;;;;;;;;12.90;87.80;;;;;;5053759;28;19913;-73
2022/04/26 12:14:38;;;;;;;;;;;12.00;90.80;;;;;;5053565;28;19908;-74
2022/04/26 12:17:14;;;;;;;;;;;11.80;92.30;;;;;;5052934;28;19909;-74
2022/04/26 12:19:41;;;;;;;;;;;12.10;93.20;;;;;;5048173;28;19966;-73
2022/04/26 12:22:07;;;;;;;;;;;12.10;93.70;;;;;;5051361;28;20283;-73
2022/04/26 12:24:44;;;;;;;;;;;12.80;93.70;;;;;;5052357;28;20007;-73
2022/04/26 12:27:17;;;;;;;;;;;13.40;93.30;;;;;;5033219;28;20409;-73
2022/04/26 12:29:44;;;;;;;;;;;12.80;92.30;;;;;;5033679;28;19913;-74
2022/04/26 12:32:09;;;;;;;;;;;14.40;90.30;;;;;;5033379;28;19913;-73
2022/04/26 12:34:35;;;;;;;;;;;14.20;90.00;;;;;;5041631;28;20293;-74
2022/04/26 12:37:02;;;;;;;;;;;15.50;89.00;;;;;;5053468;28;19916;-74
2022/04/26 12:39:52;;;;;;;;;;;18.20;81.30;;;;;;5053581;28;19936;-73
2022/04/26 12:42:27;;;;;;;;;;;20.20;73.40;;;;;;5045809;28;19913;-74
2022/04/26 12:44:55;;;;;;;;;;;20.10;69.40;;;;;;5049602;28;19916;-73
2022/04/26 12:52:50;;;;;;;;;;;13.40;90.00;;;;;;5047428;28;19931;-74
2022/04/26 12:55:27;;;;;;;;;;;11.80;91.80;;;;;;5052834;28;19909;-73
2022/04/26 12:57:54;;;;;;;;;;;10.90;92.00;;;;;;5053150;28;19916;-73
2022/04/26 13:00:23;;;;;;;;;;;10.60;94.10;;;;;;5053047;28;19909;-74
2022/04/26 13:02:50;;;;;;;;;;;10.90;93.00;;;;;;5052548;28;19939;-73
2022/04/26 13:05:16;;;;;;;;;;;11.10;94.00;;;;;;5052719;28;19908;-74
2022/04/26 13:07:42;;;;;;;;;;;10.70;94.30;;;;;;5052952;28;20270;-74
2022/04/26 13:10:07;;;;;;;;;;;10.70;95.10;;;;;;5052802;28;20366;-75
2022/04/26 13:12:33;;;;;;;;;;;11.00;94.00;;;;;;5052454;28;19980;-73
2022/04/26 13:15:00;;;;;;;;;;;10.90;95.20;;;;;;5055129;28;19912;-74
2022/04/26 13:17:25;;;;;;;;;;;10.40;95.30;;;;;;5052547;28;20354;-74
2022/04/26 13:19:51;;;;;;;;;;;10.50;96.30;;;;;;5052784;28;19935;-74
2022/04/26 13:22:17;;;;;;;;;;;13.60;92.40;;;;;;5052303;28;19912;-74
2022/04/26 13:24:42;;;;;;;;;;;15.20;87.60;;;;;;5052317;28;19908;-73
2022/04/26 13:27:08;;;;;;;;;;;14.70;87.00;;;;;;5052639;28;20004;-74
2022/04/26 13:29:34;;;;;;;;;;;15.90;88.60;;;;;;5051861;28;19915;-75
2022/04/26 13:32:02;;;;;;;;;;;14.20;90.40;;;;;;5052130;28;19909;-74
2022/04/26 13:34:27;;;;;;;;;;;13.00;93.00;;;;;;5052215;28;19909;-74
2022/04/26 13:36:54;;;;;;;;;;;13.20;93.50;;;;;;5052283;28;19909;-74
2022/04/26 13:39:20;;;;;;;;;;;13.80;91.30;;;;;;5052336;28;20285;-74
2022/04/26 13:41:50;;;;;;;;;;;14.50;90.10;;;;;;5052060;28;19912;-73
2022/04/26 13:44:15;;;;;;;;;;;13.10;92.70;;;;;;5051460;28;19909;-73
2022/04/26 13:46:43;;;;;;;;;;;13.80;91.40;;;;;;5052329;28;19935;-73
2022/04/26 13:49:08;;;;;;;;;;;13.20;88.00;;;;;;5052220;28;20148;-72
2022/04/26 13:51:34;;;;;;;;;;;11.90;90.30;;;;;;5051857;28;19999;-73
2022/04/26 13:54:00;;;;;;;;;;;11.40;90.20;;;;;;5051860;28;19909;-73
2022/04/26 13:56:26;;;;;;;;;;;11.30;90.60;;;;;;5050293;28;19975;-73
2022/04/26 13:58:51;;;;;;;;;;;11.10;90.60;;;;;;5051529;28;19909;-73
2022/04/26 14:01:17;;;;;;;;;;;11.10;90.80;;;;;;5051201;28;19966;-73
2022/04/26 14:03:42;;;;;;;;;;;11.30;90.90;;;;;;5051534;28;19909;-73
2022/04/26 14:06:10;;;;;;;;;;;12.60;87.20;;;;;;5051729;28;19908;-73
2022/04/26 14:08:36;;;;;;;;;;;12.80;90.00;;;;;;5051637;28;19955;-73
2022/04/26 14:11:02;;;;;;;;;;;12.60;87.60;;;;;;5051714;28;20344;-73
2022/04/26 14:13:27;;;;;;;;;;;12.80;88.20;;;;;;5050513;28;19948;-73
2022/04/26 14:24:07;;;;;;;;;;;12.80;87.50;;;;;;5051154;28;19951;-73
2022/04/26 14:26:34;;;;;;;;;;;15.80;76.90;;;;;;5051495;28;20574;-73
2022/04/26 14:29:00;;;;;;;;;;;17.30;71.80;;;;;;5051370;28;20439;-74
2022/04/26 14:31:25;;;;;;;;;;;19.80;72.70;;;;;;5043302;28;19908;-71
2022/04/26 14:33:51;;;;;;;;;;;18.80;70.00;;;;;;5051144;28;20396;-71
2022/04/26 14:36:16;;;;;;;;;;;19.20;67.60;;;;;;5049035;28;19908;-73
2022/04/26 14:38:42;;;;;;;;;;;18.60;67.50;;;;;;5050825;28;20396;-74
2022/04/26 14:41:08;;;;;;;;;;;18.70;63.10;;;;;;5050211;28;19996;-73
2022/04/26 14:43:33;;;;;;;;;;;19.50;68.90;;;;;;5050771;28;19909;-74
2022/04/26 14:45:59;;;;;;;;;;;18.60;67.40;;;;;;5051194;28;19920;-73
2022/04/26 14:48:26;;;;;;;;;;;18.40;65.70;;;;;;5051137;28;19909;-73
2022/04/26 14:50:52;;;;;;;;;;;14.10;76.40;;;;;;5051114;28;19913;-73
2022/04/26 14:53:18;;;;;;;;;;;12.50;80.90;;;;;;5050505;28;19924;-73
2022/04/26 14:55:44;;;;;;;;;;;12.30;84.30;;;;;;5051097;28;20278;-73
2022/04/26 14:58:12;;;;;;;;;;;12.90;82.20;;;;;;5051028;28;19909;-73
2022/04/26 15:00:37;;;;;;;;;;;13.60;78.30;;;;;;5050808;28;19940;-73
2022/04/26 15:03:03;;;;;;;;;;;12.80;81.70;;;;;;5050635;28;19963;-73
2022/04/26 15:05:29;;;;;;;;;;;12.30;84.30;;;;;;5046656;28;19913;-73
2022/04/26 15:10:38;;;;;;;;;;;12.30;84.70;;;;;;5050910;28;19915;-73
2022/04/26 15:18:42;;;;;;;;;;;11.60;84.40;;;;;;5050749;28;20504;-73
2022/04/26 15:21:09;;;;;;;;;;;11.40;88.60;;;;;;5050643;28;19913;-73
2022/04/26 15:23:35;;;;;;;;;;;11.60;88.60;;;;;;5049890;28;19935;-73
2022/04/26 15:26:03;;;;;;;;;;;11.30;86.60;;;;;;5049136;28;19909;-73
2022/04/26 15:28:30;;;;;;;;;;;11.20;87.70;;;;;;5050257;28;19909;-73
2022/04/26 15:30:56;;;;;;;;;;;11.10;87.00;;;;;;5049247;28;20031;-73
2022/04/26 15:33:22;;;;;;;;;;;11.30;89.70;;;;;;5050097;28;19912;-73
2022/04/26 15:35:49;;;;;;;;;;;11.20;87.50;;;;;;5044332;28;19909;-73
2022/04/26 15:38:14;;;;;;;;;;;11.10;90.80;;;;;;5044988;28;19909;-73
2022/04/26 15:40:41;;;;;;;;;;;11.00;93.40;;;;;;5050451;28;19954;-73
2022/04/26 15:43:06;;;;;;;;;;;11.00;95.40;;;;;;5050066;28;19913;-73
2022/04/26 15:45:32;;;;;;;;;;;11.00;96.20;;;;;;5050653;28;20263;-73
2022/04/26 15:47:58;;;;;;;;;;;11.00;96.30;;;;;;5050523;28;20431;-73
2022/04/26 15:50:24;;;;;;;;;;;11.20;96.70;;;;;;5050508;28;19909;-73
2022/04/26 15:52:50;;;;;;;;;;;11.40;96.10;;;;;;5045642;28;19908;-73
2022/04/26 15:55:16;;;;;;;;;;;11.70;95.90;;;;;;5053926;28;19913;-73
2022/04/26 15:57:44;;;;;;;;;;;11.70;95.70;;;;;;5054057;28;19909;-73
2022/04/26 16:00:10;;;;;;;;;;;11.70;95.50;;;;;;5053995;28;19909;-73
2022/04/26 16:02:36;;;;;;;;;;;11.50;95.80;;;;;;5053731;28;20385;-73
2022/04/26 16:05:01;;;;;;;;;;;11.30;95.10;;;;;;5052646;28;19952;-73
2022/04/26 16:07:27;;;;;;;;;;;11.10;94.10;;;;;;5058363;28;19915;-73
2022/04/26 16:20:49;;;;;;;;;;;12.00;92.80;;;;;;5054735;28;20015;-73
2022/04/26 16:23:14;;;;;;;;;;;12.40;92.40;;;;;;5053788;28;19944;-73
2022/04/26 16:25:40;;;;;;;;;;;11.90;92.10;;;;;;5054020;28;20288;-72
2022/04/26 16:28:05;;;;;;;;;;;11.40;92.50;;;;;;5054772;28;19909;-73
2022/04/26 16:30:31;;;;;;;;;;;11.60;92.30;;;;;;5055342;28;19909;-73
2022/04/26 16:32:57;;;;;;;;;;;12.20;92.10;;;;;;5048308;28;19970;-73
2022/04/26 16:35:24;;;;;;;;;;;12.50;90.90;;;;;;5049303;28;20362;-73
2022/04/26 16:37:49;;;;;;;;;;;12.50;90.00;;;;;;5054588;28;19913;-73
2022/04/26 16:40:15;;;;;;;;;;;11.90;91.90;;;;;;5048611;28;19908;-73
2022/04/26 16:42:40;;;;;;;;;;;11.40;91.10;;;;;;5053033;28;19955;-73
2022/04/26 16:45:08;;;;;;;;;;;11.30;92.40;;;;;;5052999;28;20298;-73
2022/04/26 16:47:33;;;;;;;;;;;11.10;90.90;;;;;;5053327;28;19913;-73
2022/04/26 16:49:58;;;;;;;;;;;10.80;90.50;;;;;;5053122;28;20016;-73
2022/04/26 16:52:24;;;;;;;;;;;10.60;90.80;;;;;;5053193;28;19916;-73
2022/04/26 16:54:53;;;;;;;;;;;10.60;91.10;;;;;;5053378;28;20003;-73
2022/04/26 16:57:19;;;;;;;;;;;10.80;91.50;;;;;;5053310;28;19912;-73
2022/04/26 16:59:44;;;;;;;;;;;11.30;91.40;;;;;;5053198;28;19916;-73
2022/04/26 17:02:10;;;;;;;;;;;11.30;89.60;;;;;;5052802;28;20396;-73
2022/04/26 17:04:35;;;;;;;;;;;11.20;91.10;;;;;;5051816;28;19908;-73
2022/04/26 17:07:01;;;;;;;;;;;11.30;91.90;;;;;;5052824;28;20332;-73
2022/04/26 17:09:28;;;;;;;;;;;11.60;91.90;;;;;;5052998;28;20005;-73
2022/04/26 17:11:54;;;;;;;;;;;11.20;92.00;;;;;;5053060;28;19916;-73
2022/04/26 17:14:20;;;;;;;;;;;10.90;92.00;;;;;;5052693;28;19913;-73
2022/04/26 17:16:47;;;;;;;;;;;10.80;92.10;;;;;;5052893;28;19909;-73
2022/04/26 17:19:12;;;;;;;;;;;10.80;92.60;;;;;;5052704;28;20357;-73
2022/04/26 17:21:38;;;;;;;;;;;10.50;92.20;;;;;;5052738;28;19963;-73
2022/04/26 17:24:04;;;;;;;;;;;10.40;92.90;;;;;;5052379;28;19919;-73
2022/04/26 17:26:30;;;;;;;;;;;10.30;92.80;;;;;;5052778;28;19908;-73
2022/04/26 17:28:56;;;;;;;;;;;10.10;92.90;;;;;;5052611;28;19916;-73
2022/04/26 17:31:22;;;;;;;;;;;10.10;93.10;;;;;;5052877;28;19908;-73
2022/04/26 17:33:50;;;;;;;;;;;10.00;93.70;;;;;;5052216;28;19916;-73
2022/04/26 17:36:19;;;;;;;;;;;9.80;95.10;;;;;;5049877;28;19916;-73
2022/04/26 17:38:45;;;;;;;;;;;9.70;96.10;;;;;;5052106;28;19955;-73
2022/04/26 17:41:10;;;;;;;;;;;9.60;96.10;;;;;;5052173;28;19959;-73
2022/04/26 17:43:36;;;;;;;;;;;9.40;97.10;;;;;;5051964;28;19909;-73
2022/04/26 17:46:02;;;;;;;;;;;9.20;97.70;;;;;;5052761;28;20371;-73
2022/04/26 17:48:27;;;;;;;;;;;9.10;97.90;;;;;;5052193;28;19909;-73
2022/04/26 17:50:53;;;;;;;;;;;8.90;97.70;;;;;;5052218;28;20260;-73
2022/04/26 17:58:46;;;;;;;;;;;8.60;99.00;;;;;;5051944;28;20523;-73
2022/04/26 18:01:13;;;;;;;;;;;8.60;99.20;;;;;;5051811;28;19964;-74
2022/04/26 18:03:38;;;;;;;;;;;8.60;98.70;;;;;;5051365;28;20370;-73
2022/04/26 18:06:04;;;;;;;;;;;8.50;99.70;;;;;;5047017;28;19920;-73
2022/04/26 18:08:30;;;;;;;;;;;8.50;99.90;;;;;;5051609;28;20378;-73
2022/04/26 18:10:57;;;;;;;;;;;8.60;99.90;;;;;;5051845;28;19935;-73
2022/04/26 18:13:24;;;;;;;;;;;8.60;99.90;;;;;;5051171;28;19916;-73
2022/04/26 18:15:54;;;;;;;;;;;8.60;99.50;;;;;;5051481;28;20433;-73
2022/04/26 18:18:21;;;;;;;;;;;8.60;99.90;;;;;;5051683;28;19917;-73
2022/04/26 18:20:47;;;;;;;;;;;8.50;99.90;;;;;;5051717;28;20378;-74
2022/04/26 18:23:12;;;;;;;;;;;8.50;99.90;;;;;;5051083;28;19963;-74
2022/04/26 18:28:22;;;;;;;;;;;8.40;99.90;;;;;;5051858;28;19932;-74
2022/04/26 18:30:47;;;;;;;;;;;8.30;99.90;;;;;;5051490;28;19909;-74
2022/04/26 18:33:13;;;;;;;;;;;8.40;99.90;;;;;;5050996;28;19908;-74
2022/04/26 18:35:38;;;;;;;;;;;8.40;99.90;;;;;;5051422;28;19909;-74
2022/04/26 18:38:04;;;;;;;;;;;8.30;99.90;;;;;;5051281;28;20004;-73
2022/04/26 18:40:30;;;;;;;;;;;8.30;99.90;;;;;;5048381;28;19916;-74
2022/04/26 18:42:55;;;;;;;;;;;8.20;99.90;;;;;;5050813;28;19917;-74
2022/04/26 18:45:24;;;;;;;;;;;8.20;99.90;;;;;;5049608;28;19996;-74
2022/04/26 18:47:49;;;;;;;;;;;8.20;99.90;;;;;;5051130;28;19913;-73
2022/04/26 18:50:15;;;;;;;;;;;8.20;99.90;;;;;;5051360;28;20289;-73
2022/04/26 18:52:40;;;;;;;;;;;8.10;99.90;;;;;;5050474;28;19913;-74
2022/04/26 18:55:06;;;;;;;;;;;8.10;99.90;;;;;;5050650;28;19920;-73